Briefing drone pour Seynod

Rechercher une autre localisation

Conditions de vol :


Nous sommes le : Mardi 27 septembre 2022
Il est 20:20 UTC (22:20 LT)

Lever de soleil : 05:02 UTC (07:02 LT)
Coucher de soleil : 17:51 UTC (19:51 LT)

Météo

L'essentiel des conditions de vol

VIGILANCE MÉTÉO FRANCE - Haute-Savoie (74)
Pas de vigilances particulieres
METAR de LFLP
LFLP 272000Z AUTO 13004KT 030V160 9999 BKN038 OVC046 11/08 Q1010

Date d'émission: 27/09/2022
Heure d'émission: 20:00 UTC
Vent: 130° (variable du 030° au 160°) pour 4 KT (7 km/h)
Visibilité horizontale: > 10 km
Plafond :
- Nuages morcelés à 3800ft (1158m)
- Couvert à 4600ft (1402m)
Température: 11 °C
Point de rosée: 8 °C
Humidité: 82%
Pression (QNH): 1010 hPa
TAF de LFLP
AMD LFLP 271917Z 2719/2815 CNL

Conditions prévues :

Heure d'émission : Bulletin éffectué le 27 à 19:00 UTC
Prévision : Valide du 27 a 19:00 UTC au 28 a 15:00 UTC
Nuages : à 0ft (0 m)
WEBCAM POUR SEYNOD

Réglementation

Voler en sécurité

CARTES AERONAUTIQUE 1/500.000
CARTE AZBA (Reseau basse altitude)
CARTES VAC (LFLP)
SUP AIP




Chargement des AIP...
NOTAM (SEYNOD + Terrain à proximité / FIR )




Chargement des NOTAMS...
CONTACT PREFECTURE 74


Avertissement : Les données mises à disposition sont indicatives. Oxygène Drone ne pourra être tenu responsable de dégâts causés aux biens et aux personnes.